sensor_id;sensor_type;location;lat;lon;timestamp;temperature;humidity
81524;DHT22;70954;49.500;10.416;2023-12-29T00:02:17;11.00;67.70
81524;DHT22;70954;49.500;10.416;2023-12-29T00:04:42;11.10;67.70
81524;DHT22;70954;49.500;10.416;2023-12-29T00:07:08;11.10;67.70
81524;DHT22;70954;49.500;10.416;2023-12-29T00:09:33;11.10;67.60
81524;DHT22;70954;49.500;10.416;2023-12-29T00:11:59;11.10;67.60
81524;DHT22;70954;49.500;10.416;2023-12-29T00:14:24;11.10;67.60
81524;DHT22;70954;49.500;10.416;2023-12-29T00:16:50;11.10;67.50
81524;DHT22;70954;49.500;10.416;2023-12-29T00:19:15;11.10;67.40
81524;DHT22;70954;49.500;10.416;2023-12-29T00:21:40;11.10;67.40
81524;DHT22;70954;49.500;10.416;2023-12-29T00:24:06;11.10;67.40
81524;DHT22;70954;49.500;10.416;2023-12-29T00:26:32;11.20;67.40
81524;DHT22;70954;49.500;10.416;2023-12-29T00:28:57;11.20;67.50
81524;DHT22;70954;49.500;10.416;2023-12-29T00:31:23;11.30;67.40
81524;DHT22;70954;49.500;10.416;2023-12-29T00:33:48;11.30;67.30
81524;DHT22;70954;49.500;10.416;2023-12-29T00:36:17;11.30;67.30
81524;DHT22;70954;49.500;10.416;2023-12-29T00:38:43;11.30;67.20
81524;DHT22;70954;49.500;10.416;2023-12-29T00:41:08;11.30;67.10
81524;DHT22;70954;49.500;10.416;2023-12-29T00:43:34;11.30;67.20
81524;DHT22;70954;49.500;10.416;2023-12-29T00:46:02;11.30;67.10
81524;DHT22;70954;49.500;10.416;2023-12-29T00:48:27;11.40;67.00
81524;DHT22;70954;49.500;10.416;2023-12-29T00:50:52;11.40;67.00
81524;DHT22;70954;49.500;10.416;2023-12-29T00:53:18;11.40;66.80
81524;DHT22;70954;49.500;10.416;2023-12-29T00:55:43;11.40;66.80
81524;DHT22;70954;49.500;10.416;2023-12-29T00:58:09;11.40;66.90
81524;DHT22;70954;49.500;10.416;2023-12-29T01:00:34;11.40;66.90
81524;DHT22;70954;49.500;10.416;2023-12-29T01:03:00;11.30;66.90
81524;DHT22;70954;49.500;10.416;2023-12-29T01:05:25;11.40;67.00
81524;DHT22;70954;49.500;10.416;2023-12-29T01:07:51;11.30;67.00
81524;DHT22;70954;49.500;10.416;2023-12-29T01:10:16;11.30;66.90
81524;DHT22;70954;49.500;10.416;2023-12-29T01:12:41;11.30;66.90
81524;DHT22;70954;49.500;10.416;2023-12-29T01:15:07;11.30;66.90
81524;DHT22;70954;49.500;10.416;2023-12-29T01:17:33;11.30;67.00
81524;DHT22;70954;49.500;10.416;2023-12-29T01:19:58;11.30;67.00
81524;DHT22;70954;49.500;10.416;2023-12-29T01:22:24;11.30;67.10
81524;DHT22;70954;49.500;10.416;2023-12-29T01:24:49;11.30;67.10
81524;DHT22;70954;49.500;10.416;2023-12-29T01:27:15;11.30;67.10
81524;DHT22;70954;49.500;10.416;2023-12-29T01:29:40;11.30;67.20
81524;DHT22;70954;49.500;10.416;2023-12-29T01:32:06;11.30;67.20
81524;DHT22;70954;49.500;10.416;2023-12-29T01:34:31;11.30;67.20
81524;DHT22;70954;49.500;10.416;2023-12-29T01:36:57;11.30;67.20
81524;DHT22;70954;49.500;10.416;2023-12-29T01:39:22;11.30;67.20
81524;DHT22;70954;49.500;10.416;2023-12-29T01:41:47;11.30;67.20
81524;DHT22;70954;49.500;10.416;2023-12-29T01:44:20;11.20;67.20
81524;DHT22;70954;49.500;10.416;2023-12-29T01:46:51;11.20;67.30
81524;DHT22;70954;49.500;10.416;2023-12-29T01:49:19;11.10;67.40
81524;DHT22;70954;49.500;10.416;2023-12-29T01:51:49;11.10;67.50
81524;DHT22;70954;49.500;10.416;2023-12-29T01:54:15;11.10;67.60
81524;DHT22;70954;49.500;10.416;2023-12-29T01:56:41;11.10;67.60
81524;DHT22;70954;49.500;10.416;2023-12-29T01:59:07;11.10;67.70
81524;DHT22;70954;49.500;10.416;2023-12-29T02:01:33;11.10;67.70
81524;DHT22;70954;49.500;10.416;2023-12-29T02:03:59;11.10;67.70
81524;DHT22;70954;49.500;10.416;2023-12-29T02:06:25;11.10;67.80
81524;DHT22;70954;49.500;10.416;2023-12-29T02:08:51;11.10;67.80
81524;DHT22;70954;49.500;10.416;2023-12-29T02:11:17;11.10;67.90
81524;DHT22;70954;49.500;10.416;2023-12-29T02:13:42;11.10;68.00
81524;DHT22;70954;49.500;10.416;2023-12-29T02:16:23;11.10;68.00
81524;DHT22;70954;49.500;10.416;2023-12-29T02:18:52;11.10;68.10
81524;DHT22;70954;49.500;10.416;2023-12-29T02:21:23;11.10;68.00
81524;DHT22;70954;49.500;10.416;2023-12-29T02:23:50;11.10;68.00
81524;DHT22;70954;49.500;10.416;2023-12-29T02:26:16;11.10;68.10
81524;DHT22;70954;49.500;10.416;2023-12-29T02:28:46;11.10;68.10
81524;DHT22;70954;49.500;10.416;2023-12-29T02:31:19;11.10;68.00
81524;DHT22;70954;49.500;10.416;2023-12-29T02:33:45;11.10;68.10
81524;DHT22;70954;49.500;10.416;2023-12-29T02:36:13;11.10;68.00
81524;DHT22;70954;49.500;10.416;2023-12-29T02:38:40;11.10;68.00
81524;DHT22;70954;49.500;10.416;2023-12-29T02:41:05;11.10;68.00
81524;DHT22;70954;49.500;10.416;2023-12-29T02:43:31;11.10;67.90
81524;DHT22;70954;49.500;10.416;2023-12-29T02:45:57;11.10;67.90
81524;DHT22;70954;49.500;10.416;2023-12-29T02:48:22;11.10;67.80
81524;DHT22;70954;49.500;10.416;2023-12-29T02:50:48;11.10;67.70
81524;DHT22;70954;49.500;10.416;2023-12-29T02:53:13;11.00;67.70
81524;DHT22;70954;49.500;10.416;2023-12-29T02:55:38;11.00;67.60
81524;DHT22;70954;49.500;10.416;2023-12-29T02:58:04;10.90;67.70
81524;DHT22;70954;49.500;10.416;2023-12-29T03:00:29;10.90;67.70
81524;DHT22;70954;49.500;10.416;2023-12-29T03:02:55;10.90;67.80
81524;DHT22;70954;49.500;10.416;2023-12-29T03:05:20;10.80;67.70
81524;DHT22;70954;49.500;10.416;2023-12-29T03:07:46;10.80;67.80
81524;DHT22;70954;49.500;10.416;2023-12-29T03:10:11;10.70;67.90
81524;DHT22;70954;49.500;10.416;2023-12-29T03:12:37;10.70;68.00
81524;DHT22;70954;49.500;10.416;2023-12-29T03:15:02;10.70;68.10
81524;DHT22;70954;49.500;10.416;2023-12-29T03:17:28;10.60;68.10
81524;DHT22;70954;49.500;10.416;2023-12-29T03:19:53;10.60;68.30
81524;DHT22;70954;49.500;10.416;2023-12-29T03:22:19;10.50;68.50
81524;DHT22;70954;49.500;10.416;2023-12-29T03:24:44;10.50;68.40
81524;DHT22;70954;49.500;10.416;2023-12-29T03:27:10;10.50;68.30
81524;DHT22;70954;49.500;10.416;2023-12-29T03:29:36;10.50;68.40
81524;DHT22;70954;49.500;10.416;2023-12-29T03:32:01;10.40;68.40
81524;DHT22;70954;49.500;10.416;2023-12-29T03:34:27;10.40;68.60
81524;DHT22;70954;49.500;10.416;2023-12-29T03:36:52;10.40;68.60
81524;DHT22;70954;49.500;10.416;2023-12-29T03:39:18;10.30;68.90
81524;DHT22;70954;49.500;10.416;2023-12-29T03:41:43;10.30;68.90
81524;DHT22;70954;49.500;10.416;2023-12-29T03:44:09;10.30;69.00
81524;DHT22;70954;49.500;10.416;2023-12-29T03:46:34;10.30;69.10
81524;DHT22;70954;49.500;10.416;2023-12-29T03:49:00;10.30;69.00
81524;DHT22;70954;49.500;10.416;2023-12-29T03:51:25;10.30;69.10
81524;DHT22;70954;49.500;10.416;2023-12-29T03:53:51;10.30;69.00
81524;DHT22;70954;49.500;10.416;2023-12-29T03:56:17;10.20;69.00
81524;DHT22;70954;49.500;10.416;2023-12-29T03:58:47;10.20;68.90
81524;DHT22;70954;49.500;10.416;2023-12-29T04:01:13;10.20;69.00
81524;DHT22;70954;49.500;10.416;2023-12-29T04:03:40;10.20;69.00
81524;DHT22;70954;49.500;10.416;2023-12-29T04:06:06;10.20;69.00
81524;DHT22;70954;49.500;10.416;2023-12-29T04:08:33;10.20;68.80
81524;DHT22;70954;49.500;10.416;2023-12-29T04:10:58;10.20;68.80
81524;DHT22;70954;49.500;10.416;2023-12-29T04:13:23;10.20;68.80
81524;DHT22;70954;49.500;10.416;2023-12-29T04:15:49;10.10;68.80
81524;DHT22;70954;49.500;10.416;2023-12-29T04:18:14;10.10;68.70
81524;DHT22;70954;49.500;10.416;2023-12-29T04:20:40;10.10;68.70
81524;DHT22;70954;49.500;10.416;2023-12-29T04:23:06;10.10;68.70
81524;DHT22;70954;49.500;10.416;2023-12-29T04:25:32;10.10;68.70
81524;DHT22;70954;49.500;10.416;2023-12-29T04:27:58;10.10;68.70
81524;DHT22;70954;49.500;10.416;2023-12-29T04:30:23;10.10;68.70
81524;DHT22;70954;49.500;10.416;2023-12-29T04:32:49;10.10;68.70
81524;DHT22;70954;49.500;10.416;2023-12-29T04:35:14;10.10;68.80
81524;DHT22;70954;49.500;10.416;2023-12-29T04:37:40;10.10;68.90
81524;DHT22;70954;49.500;10.416;2023-12-29T04:40:06;10.10;69.00
81524;DHT22;70954;49.500;10.416;2023-12-29T04:42:32;10.10;69.00
81524;DHT22;70954;49.500;10.416;2023-12-29T04:44:57;10.10;69.00
81524;DHT22;70954;49.500;10.416;2023-12-29T04:47:23;10.10;69.10
81524;DHT22;70954;49.500;10.416;2023-12-29T04:49:48;10.10;69.10
81524;DHT22;70954;49.500;10.416;2023-12-29T04:52:14;10.10;69.10
81524;DHT22;70954;49.500;10.416;2023-12-29T04:54:39;10.10;69.00
81524;DHT22;70954;49.500;10.416;2023-12-29T04:57:05;10.20;69.00
81524;DHT22;70954;49.500;10.416;2023-12-29T04:59:30;10.20;68.90
81524;DHT22;70954;49.500;10.416;2023-12-29T05:01:55;10.20;68.80
81524;DHT22;70954;49.500;10.416;2023-12-29T05:04:21;10.20;68.70
81524;DHT22;70954;49.500;10.416;2023-12-29T05:06:46;10.20;68.50
81524;DHT22;70954;49.500;10.416;2023-12-29T05:09:12;10.20;68.50
81524;DHT22;70954;49.500;10.416;2023-12-29T05:11:37;10.20;68.50
81524;DHT22;70954;49.500;10.416;2023-12-29T05:14:03;10.20;68.60
81524;DHT22;70954;49.500;10.416;2023-12-29T05:16:28;10.20;68.70
81524;DHT22;70954;49.500;10.416;2023-12-29T05:18:54;10.20;68.80
81524;DHT22;70954;49.500;10.416;2023-12-29T05:21:19;10.10;68.90
81524;DHT22;70954;49.500;10.416;2023-12-29T05:23:45;10.20;68.90
81524;DHT22;70954;49.500;10.416;2023-12-29T05:26:10;10.10;68.90
81524;DHT22;70954;49.500;10.416;2023-12-29T05:28:36;10.20;69.00
81524;DHT22;70954;49.500;10.416;2023-12-29T05:31:01;10.20;69.00
81524;DHT22;70954;49.500;10.416;2023-12-29T05:33:27;10.20;69.00
81524;DHT22;70954;49.500;10.416;2023-12-29T05:35:52;10.20;68.80
81524;DHT22;70954;49.500;10.416;2023-12-29T05:38:18;10.20;68.70
81524;DHT22;70954;49.500;10.416;2023-12-29T05:40:43;10.20;68.70
81524;DHT22;70954;49.500;10.416;2023-12-29T05:43:08;10.20;68.60
81524;DHT22;70954;49.500;10.416;2023-12-29T05:45:34;10.20;68.60
81524;DHT22;70954;49.500;10.416;2023-12-29T05:47:59;10.20;68.60
81524;DHT22;70954;49.500;10.416;2023-12-29T05:50:25;10.20;68.60
81524;DHT22;70954;49.500;10.416;2023-12-29T05:52:50;10.20;68.60
81524;DHT22;70954;49.500;10.416;2023-12-29T05:55:16;10.20;68.60
81524;DHT22;70954;49.500;10.416;2023-12-29T05:57:41;10.20;68.60
81524;DHT22;70954;49.500;10.416;2023-12-29T06:00:07;10.10;68.60
81524;DHT22;70954;49.500;10.416;2023-12-29T06:02:33;10.10;68.60
81524;DHT22;70954;49.500;10.416;2023-12-29T06:04:58;10.10;68.60
81524;DHT22;70954;49.500;10.416;2023-12-29T06:07:23;10.10;68.60
81524;DHT22;70954;49.500;10.416;2023-12-29T06:09:49;10.10;68.70
81524;DHT22;70954;49.500;10.416;2023-12-29T06:12:14;10.10;68.60
81524;DHT22;70954;49.500;10.416;2023-12-29T06:14:40;10.10;68.60
81524;DHT22;70954;49.500;10.416;2023-12-29T06:17:05;10.10;68.70
81524;DHT22;70954;49.500;10.416;2023-12-29T06:19:31;10.10;68.80
81524;DHT22;70954;49.500;10.416;2023-12-29T06:21:56;10.10;68.80
81524;DHT22;70954;49.500;10.416;2023-12-29T06:24:21;10.10;68.90
81524;DHT22;70954;49.500;10.416;2023-12-29T06:26:47;10.10;69.00
81524;DHT22;70954;49.500;10.416;2023-12-29T06:29:13;10.10;69.00
81524;DHT22;70954;49.500;10.416;2023-12-29T06:31:41;10.20;69.00
81524;DHT22;70954;49.500;10.416;2023-12-29T06:34:06;10.20;69.00
81524;DHT22;70954;49.500;10.416;2023-12-29T06:36:32;10.20;69.00
81524;DHT22;70954;49.500;10.416;2023-12-29T06:38:57;10.20;69.00
81524;DHT22;70954;49.500;10.416;2023-12-29T06:41:23;10.20;69.00
81524;DHT22;70954;49.500;10.416;2023-12-29T06:43:48;10.20;69.00
81524;DHT22;70954;49.500;10.416;2023-12-29T06:46:14;10.20;69.00
81524;DHT22;70954;49.500;10.416;2023-12-29T06:48:39;10.30;69.10
81524;DHT22;70954;49.500;10.416;2023-12-29T06:51:05;10.30;69.10
81524;DHT22;70954;49.500;10.416;2023-12-29T06:53:30;10.30;69.10
81524;DHT22;70954;49.500;10.416;2023-12-29T06:55:56;10.30;69.20
81524;DHT22;70954;49.500;10.416;2023-12-29T06:58:21;10.30;69.30
81524;DHT22;70954;49.500;10.416;2023-12-29T07:00:47;10.30;69.50
81524;DHT22;70954;49.500;10.416;2023-12-29T07:03:13;10.30;69.40
81524;DHT22;70954;49.500;10.416;2023-12-29T07:05:38;10.40;69.50
81524;DHT22;70954;49.500;10.416;2023-12-29T07:08:04;10.40;69.60
81524;DHT22;70954;49.500;10.416;2023-12-29T07:10:29;10.40;69.50
81524;DHT22;70954;49.500;10.416;2023-12-29T07:12:55;10.40;69.60
81524;DHT22;70954;49.500;10.416;2023-12-29T07:15:20;10.40;69.50
81524;DHT22;70954;49.500;10.416;2023-12-29T07:17:46;10.50;69.50
81524;DHT22;70954;49.500;10.416;2023-12-29T07:20:11;10.50;69.50
81524;DHT22;70954;49.500;10.416;2023-12-29T07:22:37;10.50;69.50
81524;DHT22;70954;49.500;10.416;2023-12-29T07:25:02;10.50;69.40
81524;DHT22;70954;49.500;10.416;2023-12-29T07:27:28;10.50;69.40
81524;DHT22;70954;49.500;10.416;2023-12-29T07:29:53;10.50;69.40
81524;DHT22;70954;49.500;10.416;2023-12-29T07:32:19;10.60;69.30
81524;DHT22;70954;49.500;10.416;2023-12-29T07:34:44;10.60;69.20
81524;DHT22;70954;49.500;10.416;2023-12-29T07:37:09;10.60;69.10
81524;DHT22;70954;49.500;10.416;2023-12-29T07:39:36;10.60;69.00
81524;DHT22;70954;49.500;10.416;2023-12-29T07:42:02;10.60;69.00
81524;DHT22;70954;49.500;10.416;2023-12-29T07:44:27;10.60;68.80
81524;DHT22;70954;49.500;10.416;2023-12-29T07:46:53;10.60;68.80
81524;DHT22;70954;49.500;10.416;2023-12-29T07:49:18;10.60;68.70
81524;DHT22;70954;49.500;10.416;2023-12-29T07:51:47;10.60;68.70
81524;DHT22;70954;49.500;10.416;2023-12-29T07:54:12;10.60;68.70
81524;DHT22;70954;49.500;10.416;2023-12-29T07:56:38;10.60;68.50
81524;DHT22;70954;49.500;10.416;2023-12-29T07:59:04;10.60;68.40
81524;DHT22;70954;49.500;10.416;2023-12-29T08:01:29;10.60;68.50
81524;DHT22;70954;49.500;10.416;2023-12-29T08:03:55;10.60;68.40
81524;DHT22;70954;49.500;10.416;2023-12-29T08:06:20;10.60;68.40
81524;DHT22;70954;49.500;10.416;2023-12-29T08:08:46;10.70;68.40
81524;DHT22;70954;49.500;10.416;2023-12-29T08:11:15;10.70;68.20
81524;DHT22;70954;49.500;10.416;2023-12-29T08:13:43;10.70;68.00
81524;DHT22;70954;49.500;10.416;2023-12-29T08:16:08;10.70;67.90
81524;DHT22;70954;49.500;10.416;2023-12-29T08:18:34;10.70;67.70
81524;DHT22;70954;49.500;10.416;2023-12-29T08:20:59;10.70;67.80
81524;DHT22;70954;49.500;10.416;2023-12-29T08:23:25;10.70;67.70
81524;DHT22;70954;49.500;10.416;2023-12-29T08:25:51;10.70;67.70
81524;DHT22;70954;49.500;10.416;2023-12-29T08:28:16;10.80;67.50
81524;DHT22;70954;49.500;10.416;2023-12-29T08:30:41;10.80;67.50
81524;DHT22;70954;49.500;10.416;2023-12-29T08:33:07;10.80;67.50
81524;DHT22;70954;49.500;10.416;2023-12-29T08:35:32;10.80;67.50
81524;DHT22;70954;49.500;10.416;2023-12-29T08:37:58;10.90;67.50
81524;DHT22;70954;49.500;10.416;2023-12-29T08:40:23;10.90;67.50
81524;DHT22;70954;49.500;10.416;2023-12-29T08:42:49;10.90;67.50
81524;DHT22;70954;49.500;10.416;2023-12-29T08:45:14;10.90;67.50
81524;DHT22;70954;49.500;10.416;2023-12-29T08:47:39;11.00;67.30
81524;DHT22;70954;49.500;10.416;2023-12-29T08:50:05;11.00;67.30
81524;DHT22;70954;49.500;10.416;2023-12-29T08:52:31;11.00;67.20
81524;DHT22;70954;49.500;10.416;2023-12-29T08:54:56;11.10;67.20
81524;DHT22;70954;49.500;10.416;2023-12-29T08:57:21;11.10;67.20
81524;DHT22;70954;49.500;10.416;2023-12-29T08:59:47;11.10;67.10
81524;DHT22;70954;49.500;10.416;2023-12-29T09:02:12;11.10;67.00
81524;DHT22;70954;49.500;10.416;2023-12-29T09:04:38;11.10;66.90
81524;DHT22;70954;49.500;10.416;2023-12-29T09:07:03;11.20;66.90
81524;DHT22;70954;49.500;10.416;2023-12-29T09:09:29;11.30;66.90
81524;DHT22;70954;49.500;10.416;2023-12-29T09:11:54;11.30;66.90
81524;DHT22;70954;49.500;10.416;2023-12-29T09:14:20;11.30;67.00
81524;DHT22;70954;49.500;10.416;2023-12-29T09:16:45;11.30;66.90
81524;DHT22;70954;49.500;10.416;2023-12-29T09:19:10;11.40;66.90
81524;DHT22;70954;49.500;10.416;2023-12-29T09:21:36;11.40;66.60
81524;DHT22;70954;49.500;10.416;2023-12-29T09:24:01;11.40;66.50
81524;DHT22;70954;49.500;10.416;2023-12-29T09:26:27;11.50;66.70
81524;DHT22;70954;49.500;10.416;2023-12-29T09:28:52;11.50;66.60
81524;DHT22;70954;49.500;10.416;2023-12-29T09:31:18;11.50;66.50
81524;DHT22;70954;49.500;10.416;2023-12-29T09:33:43;11.50;66.50
81524;DHT22;70954;49.500;10.416;2023-12-29T09:36:09;11.50;66.30
81524;DHT22;70954;49.500;10.416;2023-12-29T09:38:34;11.60;66.20
81524;DHT22;70954;49.500;10.416;2023-12-29T09:41:04;11.70;66.10
81524;DHT22;70954;49.500;10.416;2023-12-29T09:43:31;11.70;66.10
81524;DHT22;70954;49.500;10.416;2023-12-29T09:45:58;11.70;66.00
81524;DHT22;70954;49.500;10.416;2023-12-29T09:48:26;11.70;65.90
81524;DHT22;70954;49.500;10.416;2023-12-29T09:50:52;11.70;65.90
81524;DHT22;70954;49.500;10.416;2023-12-29T09:53:22;11.70;65.70
81524;DHT22;70954;49.500;10.416;2023-12-29T09:55:48;11.70;65.80
81524;DHT22;70954;49.500;10.416;2023-12-29T09:58:15;11.70;65.90
81524;DHT22;70954;49.500;10.416;2023-12-29T10:00:42;11.70;65.80
81524;DHT22;70954;49.500;10.416;2023-12-29T10:03:08;11.70;65.80
81524;DHT22;70954;49.500;10.416;2023-12-29T10:05:34;11.70;65.90
81524;DHT22;70954;49.500;10.416;2023-12-29T10:08:02;11.70;66.00
81524;DHT22;70954;49.500;10.416;2023-12-29T10:10:28;11.70;66.10
81524;DHT22;70954;49.500;10.416;2023-12-29T10:12:54;11.70;66.20
81524;DHT22;70954;49.500;10.416;2023-12-29T10:15:27;11.70;66.40
81524;DHT22;70954;49.500;10.416;2023-12-29T10:18:26;11.70;66.60
81524;DHT22;70954;49.500;10.416;2023-12-29T10:21:06;11.70;66.60
81524;DHT22;70954;49.500;10.416;2023-12-29T10:26:03;11.80;66.90
81524;DHT22;70954;49.500;10.416;2023-12-29T10:28:29;11.80;67.10
81524;DHT22;70954;49.500;10.416;2023-12-29T10:30:54;11.90;67.20
81524;DHT22;70954;49.500;10.416;2023-12-29T10:33:20;11.90;67.10
81524;DHT22;70954;49.500;10.416;2023-12-29T10:38:24;11.90;66.90
81524;DHT22;70954;49.500;10.416;2023-12-29T10:40:49;11.90;67.00
81524;DHT22;70954;49.500;10.416;2023-12-29T10:43:22;11.90;67.10
81524;DHT22;70954;49.500;10.416;2023-12-29T10:45:47;12.00;66.90
81524;DHT22;70954;49.500;10.416;2023-12-29T10:48:21;12.00;66.80
81524;DHT22;70954;49.500;10.416;2023-12-29T10:50:47;12.00;66.50
81524;DHT22;70954;49.500;10.416;2023-12-29T10:53:16;12.00;66.30
81524;DHT22;70954;49.500;10.416;2023-12-29T10:55:41;12.00;66.20
81524;DHT22;70954;49.500;10.416;2023-12-29T10:58:07;12.00;65.90
81524;DHT22;70954;49.500;10.416;2023-12-29T11:00:32;12.00;65.80
81524;DHT22;70954;49.500;10.416;2023-12-29T11:02:58;12.00;65.80
81524;DHT22;70954;49.500;10.416;2023-12-29T11:05:27;12.00;65.80
81524;DHT22;70954;49.500;10.416;2023-12-29T11:07:54;12.00;65.60
81524;DHT22;70954;49.500;10.416;2023-12-29T11:10:20;11.90;65.40
81524;DHT22;70954;49.500;10.416;2023-12-29T11:12:47;11.90;65.40
81524;DHT22;70954;49.500;10.416;2023-12-29T11:15:14;11.90;65.40
81524;DHT22;70954;49.500;10.416;2023-12-29T11:17:41;11.90;65.40
81524;DHT22;70954;49.500;10.416;2023-12-29T11:20:07;11.90;65.40
81524;DHT22;70954;49.500;10.416;2023-12-29T11:22:34;11.90;65.40
81524;DHT22;70954;49.500;10.416;2023-12-29T11:25:00;11.90;65.50
81524;DHT22;70954;49.500;10.416;2023-12-29T11:27:29;11.90;65.60
81524;DHT22;70954;49.500;10.416;2023-12-29T11:29:57;11.90;65.40
81524;DHT22;70954;49.500;10.416;2023-12-29T11:35:18;12.00;65.40
81524;DHT22;70954;49.500;10.416;2023-12-29T11:43:31;12.00;64.70
81524;DHT22;70954;49.500;10.416;2023-12-29T11:45:56;12.10;64.90
81524;DHT22;70954;49.500;10.416;2023-12-29T11:48:57;12.10;65.00
81524;DHT22;70954;49.500;10.416;2023-12-29T11:53:57;12.20;64.50
81524;DHT22;70954;49.500;10.416;2023-12-29T11:56:23;12.20;64.40
81524;DHT22;70954;49.500;10.416;2023-12-29T11:58:48;12.20;64.60
81524;DHT22;70954;49.500;10.416;2023-12-29T12:01:32;12.20;64.50
81524;DHT22;70954;49.500;10.416;2023-12-29T12:03:58;12.20;63.90
81524;DHT22;70954;49.500;10.416;2023-12-29T12:06:39;12.30;63.90
81524;DHT22;70954;49.500;10.416;2023-12-29T12:09:37;12.30;63.30
81524;DHT22;70954;49.500;10.416;2023-12-29T12:12:04;12.30;63.40
81524;DHT22;70954;49.500;10.416;2023-12-29T12:14:52;12.30;63.50
81524;DHT22;70954;49.500;10.416;2023-12-29T12:17:33;12.50;62.90
81524;DHT22;70954;49.500;10.416;2023-12-29T12:20:09;12.50;62.50
81524;DHT22;70954;49.500;10.416;2023-12-29T12:22:35;12.50;62.90
81524;DHT22;70954;49.500;10.416;2023-12-29T12:25:02;12.50;63.00
81524;DHT22;70954;49.500;10.416;2023-12-29T12:27:28;12.50;62.80
81524;DHT22;70954;49.500;10.416;2023-12-29T12:29:57;12.50;62.60
81524;DHT22;70954;49.500;10.416;2023-12-29T12:32:23;12.50;61.90
81524;DHT22;70954;49.500;10.416;2023-12-29T12:34:49;12.50;62.00
81524;DHT22;70954;49.500;10.416;2023-12-29T12:37:27;12.50;61.70
81524;DHT22;70954;49.500;10.416;2023-12-29T12:39:53;12.70;61.90
81524;DHT22;70954;49.500;10.416;2023-12-29T12:42:20;12.70;62.10
81524;DHT22;70954;49.500;10.416;2023-12-29T12:44:55;12.70;62.30
81524;DHT22;70954;49.500;10.416;2023-12-29T12:47:33;12.80;62.10
81524;DHT22;70954;49.500;10.416;2023-12-29T12:50:00;12.80;61.90
81524;DHT22;70954;49.500;10.416;2023-12-29T12:52:29;12.80;62.10
81524;DHT22;70954;49.500;10.416;2023-12-29T12:54:55;12.90;61.90
81524;DHT22;70954;49.500;10.416;2023-12-29T12:57:21;12.90;61.60
81524;DHT22;70954;49.500;10.416;2023-12-29T12:59:49;12.90;61.40
81524;DHT22;70954;49.500;10.416;2023-12-29T13:02:15;13.00;61.30
81524;DHT22;70954;49.500;10.416;2023-12-29T13:04:42;13.00;61.00
81524;DHT22;70954;49.500;10.416;2023-12-29T13:07:08;13.00;60.80
81524;DHT22;70954;49.500;10.416;2023-12-29T13:09:36;13.00;60.70
81524;DHT22;70954;49.500;10.416;2023-12-29T13:12:09;13.00;60.80
81524;DHT22;70954;49.500;10.416;2023-12-29T13:14:34;13.00;60.60
81524;DHT22;70954;49.500;10.416;2023-12-29T13:17:05;13.00;60.50
81524;DHT22;70954;49.500;10.416;2023-12-29T13:19:31;13.00;60.30
81524;DHT22;70954;49.500;10.416;2023-12-29T13:21:56;13.00;60.40
81524;DHT22;70954;49.500;10.416;2023-12-29T13:24:22;12.90;60.00
81524;DHT22;70954;49.500;10.416;2023-12-29T13:26:51;12.90;60.20
81524;DHT22;70954;49.500;10.416;2023-12-29T13:29:21;12.90;60.40
81524;DHT22;70954;49.500;10.416;2023-12-29T13:31:48;12.90;60.60
81524;DHT22;70954;49.500;10.416;2023-12-29T13:34:33;12.90;60.60
81524;DHT22;70954;49.500;10.416;2023-12-29T13:39:40;12.80;60.30
81524;DHT22;70954;49.500;10.416;2023-12-29T13:42:09;12.80;60.30
81524;DHT22;70954;49.500;10.416;2023-12-29T13:44:36;12.90;59.70
81524;DHT22;70954;49.500;10.416;2023-12-29T13:47:04;12.80;59.80
81524;DHT22;70954;49.500;10.416;2023-12-29T13:49:31;12.90;60.00
81524;DHT22;70954;49.500;10.416;2023-12-29T13:52:00;12.90;59.50
81524;DHT22;70954;49.500;10.416;2023-12-29T13:54:25;12.80;59.50
81524;DHT22;70954;49.500;10.416;2023-12-29T13:56:52;12.80;59.60
81524;DHT22;70954;49.500;10.416;2023-12-29T13:59:17;12.80;59.50
81524;DHT22;70954;49.500;10.416;2023-12-29T14:01:43;12.80;59.40
81524;DHT22;70954;49.500;10.416;2023-12-29T14:04:11;12.80;59.00
81524;DHT22;70954;49.500;10.416;2023-12-29T14:09:03;12.80;58.30
81524;DHT22;70954;49.500;10.416;2023-12-29T14:11:28;12.80;58.30
81524;DHT22;70954;49.500;10.416;2023-12-29T14:13:54;12.80;58.50
81524;DHT22;70954;49.500;10.416;2023-12-29T14:16:19;12.70;58.40
81524;DHT22;70954;49.500;10.416;2023-12-29T14:21:30;12.70;58.00
81524;DHT22;70954;49.500;10.416;2023-12-29T14:26:24;12.70;58.30
81524;DHT22;70954;49.500;10.416;2023-12-29T14:29:09;12.60;58.20
81524;DHT22;70954;49.500;10.416;2023-12-29T14:31:37;12.60;58.20
81524;DHT22;70954;49.500;10.416;2023-12-29T14:34:03;12.60;58.40
81524;DHT22;70954;49.500;10.416;2023-12-29T14:36:30;12.50;58.50
81524;DHT22;70954;49.500;10.416;2023-12-29T14:38:55;12.50;58.70
81524;DHT22;70954;49.500;10.416;2023-12-29T14:41:21;12.50;58.50
81524;DHT22;70954;49.500;10.416;2023-12-29T14:43:46;12.50;58.50
81524;DHT22;70954;49.500;10.416;2023-12-29T14:46:12;12.50;58.70
81524;DHT22;70954;49.500;10.416;2023-12-29T14:48:37;12.50;58.70
81524;DHT22;70954;49.500;10.416;2023-12-29T14:51:03;12.50;58.60
81524;DHT22;70954;49.500;10.416;2023-12-29T14:53:29;12.50;58.60
81524;DHT22;70954;49.500;10.416;2023-12-29T14:55:54;12.50;58.50
81524;DHT22;70954;49.500;10.416;2023-12-29T14:58:19;12.50;58.50
81524;DHT22;70954;49.500;10.416;2023-12-29T15:00:45;12.50;58.50
81524;DHT22;70954;49.500;10.416;2023-12-29T15:03:11;12.50;58.70
81524;DHT22;70954;49.500;10.416;2023-12-29T15:05:36;12.40;58.90
81524;DHT22;70954;49.500;10.416;2023-12-29T15:08:01;12.40;58.80
81524;DHT22;70954;49.500;10.416;2023-12-29T15:10:27;12.40;58.70
81524;DHT22;70954;49.500;10.416;2023-12-29T15:12:52;12.30;58.70
81524;DHT22;70954;49.500;10.416;2023-12-29T15:15:18;12.30;58.60
81524;DHT22;70954;49.500;10.416;2023-12-29T15:17:43;12.30;58.80
81524;DHT22;70954;49.500;10.416;2023-12-29T15:20:09;12.20;58.90
81524;DHT22;70954;49.500;10.416;2023-12-29T15:22:35;12.20;58.90
81524;DHT22;70954;49.500;10.416;2023-12-29T15:25:00;12.20;59.00
81524;DHT22;70954;49.500;10.416;2023-12-29T15:27:26;12.10;58.90
81524;DHT22;70954;49.500;10.416;2023-12-29T15:29:51;12.10;59.10
81524;DHT22;70954;49.500;10.416;2023-12-29T15:32:16;12.00;59.00
81524;DHT22;70954;49.500;10.416;2023-12-29T15:34:42;12.00;59.20
81524;DHT22;70954;49.500;10.416;2023-12-29T15:37:07;12.00;59.20
81524;DHT22;70954;49.500;10.416;2023-12-29T15:39:33;11.90;59.30